sensor_id;sensor_type;location;lat;lon;timestamp;P1;durP1;ratioP1;P2;durP2;ratioP2
1400;SDS011;46518;48.842;8.926;2022-08-19T00:02:00;23.00;;;17.90;;
1400;SDS011;46518;48.842;8.926;2022-08-19T00:04:29;19.03;;;16.97;;
1400;SDS011;46518;48.842;8.926;2022-08-19T00:07:02;23.00;;;18.67;;
1400;SDS011;46518;48.842;8.926;2022-08-19T00:09:31;20.27;;;18.17;;
1400;SDS011;46518;48.842;8.926;2022-08-19T00:12:01;22.15;;;18.60;;
1400;SDS011;46518;48.842;8.926;2022-08-19T00:14:30;28.83;;;20.87;;
1400;SDS011;46518;48.842;8.926;2022-08-19T00:16:59;23.53;;;19.80;;
1400;SDS011;46518;48.842;8.926;2022-08-19T00:19:27;23.85;;;20.05;;
1400;SDS011;46518;48.842;8.926;2022-08-19T00:21:55;24.52;;;20.00;;
1400;SDS011;46518;48.842;8.926;2022-08-19T00:24:24;25.45;;;20.42;;
1400;SDS011;46518;48.842;8.926;2022-08-19T00:26:55;21.50;;;19.23;;
1400;SDS011;46518;48.842;8.926;2022-08-19T00:29:45;24.93;;;20.40;;
1400;SDS011;46518;48.842;8.926;2022-08-19T00:32:18;24.23;;;20.00;;
1400;SDS011;46518;48.842;8.926;2022-08-19T00:34:47;24.33;;;20.88;;
1400;SDS011;46518;48.842;8.926;2022-08-19T00:37:15;28.02;;;21.55;;
1400;SDS011;46518;48.842;8.926;2022-08-19T00:39:44;24.58;;;20.67;;
1400;SDS011;46518;48.842;8.926;2022-08-19T00:42:15;26.75;;;20.63;;
1400;SDS011;46518;48.842;8.926;2022-08-19T00:44:44;25.38;;;21.75;;
1400;SDS011;46518;48.842;8.926;2022-08-19T00:47:13;24.73;;;20.55;;
1400;SDS011;46518;48.842;8.926;2022-08-19T00:49:43;25.90;;;22.33;;
1400;SDS011;46518;48.842;8.926;2022-08-19T00:52:18;28.13;;;22.42;;
1400;SDS011;46518;48.842;8.926;2022-08-19T00:54:49;30.10;;;23.25;;
1400;SDS011;46518;48.842;8.926;2022-08-19T00:57:20;24.52;;;21.58;;
1400;SDS011;46518;48.842;8.926;2022-08-19T00:59:55;31.00;;;23.45;;
1400;SDS011;46518;48.842;8.926;2022-08-19T01:02:29;27.92;;;22.40;;
1400;SDS011;46518;48.842;8.926;2022-08-19T01:05:00;25.67;;;22.55;;
1400;SDS011;46518;48.842;8.926;2022-08-19T01:07:32;26.17;;;21.02;;
1400;SDS011;46518;48.842;8.926;2022-08-19T01:10:04;27.98;;;22.83;;
1400;SDS011;46518;48.842;8.926;2022-08-19T01:12:35;27.15;;;20.75;;
1400;SDS011;46518;48.842;8.926;2022-08-19T01:15:06;27.27;;;22.15;;
1400;SDS011;46518;48.842;8.926;2022-08-19T01:17:36;26.73;;;21.85;;
1400;SDS011;46518;48.842;8.926;2022-08-19T01:20:09;26.30;;;22.17;;
1400;SDS011;46518;48.842;8.926;2022-08-19T01:22:42;26.45;;;22.02;;
1400;SDS011;46518;48.842;8.926;2022-08-19T01:25:12;32.35;;;24.05;;
1400;SDS011;46518;48.842;8.926;2022-08-19T01:27:43;27.00;;;21.60;;
1400;SDS011;46518;48.842;8.926;2022-08-19T01:30:15;25.65;;;22.63;;
1400;SDS011;46518;48.842;8.926;2022-08-19T01:32:46;27.38;;;22.38;;
1400;SDS011;46518;48.842;8.926;2022-08-19T01:35:14;28.67;;;24.10;;
1400;SDS011;46518;48.842;8.926;2022-08-19T01:37:47;27.20;;;22.45;;
1400;SDS011;46518;48.842;8.926;2022-08-19T01:40:18;33.63;;;24.90;;
1400;SDS011;46518;48.842;8.926;2022-08-19T01:42:48;29.33;;;24.35;;
1400;SDS011;46518;48.842;8.926;2022-08-19T01:45:18;30.13;;;24.67;;
1400;SDS011;46518;48.842;8.926;2022-08-19T01:48:14;30.27;;;25.38;;
1400;SDS011;46518;48.842;8.926;2022-08-19T01:50:42;31.85;;;24.10;;
1400;SDS011;46518;48.842;8.926;2022-08-19T01:53:12;31.08;;;23.15;;
1400;SDS011;46518;48.842;8.926;2022-08-19T01:55:41;30.25;;;25.05;;
1400;SDS011;46518;48.842;8.926;2022-08-19T01:58:12;29.13;;;24.42;;
1400;SDS011;46518;48.842;8.926;2022-08-19T02:00:42;29.38;;;24.33;;
1400;SDS011;46518;48.842;8.926;2022-08-19T02:03:11;30.30;;;25.10;;
1400;SDS011;46518;48.842;8.926;2022-08-19T02:05:40;28.90;;;24.38;;
1400;SDS011;46518;48.842;8.926;2022-08-19T02:08:09;32.05;;;24.98;;
1400;SDS011;46518;48.842;8.926;2022-08-19T02:10:41;28.27;;;24.88;;
1400;SDS011;46518;48.842;8.926;2022-08-19T02:13:11;29.50;;;23.48;;
1400;SDS011;46518;48.842;8.926;2022-08-19T02:15:40;30.83;;;25.23;;
1400;SDS011;46518;48.842;8.926;2022-08-19T02:18:08;32.55;;;24.88;;
1400;SDS011;46518;48.842;8.926;2022-08-19T02:20:37;29.65;;;25.05;;
1400;SDS011;46518;48.842;8.926;2022-08-19T02:23:07;32.28;;;24.40;;
1400;SDS011;46518;48.842;8.926;2022-08-19T02:25:43;30.55;;;24.40;;
1400;SDS011;46518;48.842;8.926;2022-08-19T02:28:13;33.40;;;27.90;;
1400;SDS011;46518;48.842;8.926;2022-08-19T02:30:44;27.73;;;24.35;;
1400;SDS011;46518;48.842;8.926;2022-08-19T02:33:14;30.20;;;23.80;;
1400;SDS011;46518;48.842;8.926;2022-08-19T02:35:43;33.08;;;26.42;;
1400;SDS011;46518;48.842;8.926;2022-08-19T02:38:12;32.25;;;25.98;;
1400;SDS011;46518;48.842;8.926;2022-08-19T02:40:57;31.58;;;25.48;;
1400;SDS011;46518;48.842;8.926;2022-08-19T02:43:29;29.58;;;25.92;;
1400;SDS011;46518;48.842;8.926;2022-08-19T02:46:00;33.75;;;27.35;;
1400;SDS011;46518;48.842;8.926;2022-08-19T02:48:29;31.02;;;26.55;;
1400;SDS011;46518;48.842;8.926;2022-08-19T02:50:59;37.92;;;29.23;;
1400;SDS011;46518;48.842;8.926;2022-08-19T02:53:28;32.13;;;27.67;;
1400;SDS011;46518;48.842;8.926;2022-08-19T02:55:57;36.25;;;27.05;;
1400;SDS011;46518;48.842;8.926;2022-08-19T02:58:25;34.78;;;27.67;;
1400;SDS011;46518;48.842;8.926;2022-08-19T03:00:55;30.80;;;25.48;;
1400;SDS011;46518;48.842;8.926;2022-08-19T03:03:24;35.67;;;27.48;;
1400;SDS011;46518;48.842;8.926;2022-08-19T03:06:02;37.42;;;28.65;;
1400;SDS011;46518;48.842;8.926;2022-08-19T03:08:31;35.35;;;28.88;;
1400;SDS011;46518;48.842;8.926;2022-08-19T03:11:01;34.72;;;28.00;;
1400;SDS011;46518;48.842;8.926;2022-08-19T03:13:29;39.45;;;28.75;;
1400;SDS011;46518;48.842;8.926;2022-08-19T03:15:57;36.75;;;30.88;;
1400;SDS011;46518;48.842;8.926;2022-08-19T03:18:26;33.72;;;29.25;;
1400;SDS011;46518;48.842;8.926;2022-08-19T03:20:54;32.00;;;27.33;;
1400;SDS011;46518;48.842;8.926;2022-08-19T03:23:22;39.00;;;30.40;;
1400;SDS011;46518;48.842;8.926;2022-08-19T03:25:52;38.80;;;30.40;;
1400;SDS011;46518;48.842;8.926;2022-08-19T03:28:42;35.50;;;29.80;;
1400;SDS011;46518;48.842;8.926;2022-08-19T03:31:23;40.78;;;33.10;;
1400;SDS011;46518;48.842;8.926;2022-08-19T03:34:13;33.80;;;26.63;;
1400;SDS011;46518;48.842;8.926;2022-08-19T03:36:46;33.85;;;29.35;;
1400;SDS011;46518;48.842;8.926;2022-08-19T03:39:15;35.30;;;30.00;;
1400;SDS011;46518;48.842;8.926;2022-08-19T03:41:44;38.83;;;31.25;;
1400;SDS011;46518;48.842;8.926;2022-08-19T03:44:36;38.28;;;29.33;;
1400;SDS011;46518;48.842;8.926;2022-08-19T03:47:05;31.90;;;26.75;;
1400;SDS011;46518;48.842;8.926;2022-08-19T03:49:33;38.63;;;30.13;;
1400;SDS011;46518;48.842;8.926;2022-08-19T03:52:03;33.40;;;28.35;;
1400;SDS011;46518;48.842;8.926;2022-08-19T03:54:34;35.70;;;26.98;;
1400;SDS011;46518;48.842;8.926;2022-08-19T03:57:04;36.15;;;28.48;;
1400;SDS011;46518;48.842;8.926;2022-08-19T03:59:33;38.80;;;28.55;;
1400;SDS011;46518;48.842;8.926;2022-08-19T04:02:08;31.98;;;27.00;;
1400;SDS011;46518;48.842;8.926;2022-08-19T04:04:38;37.08;;;29.38;;
1400;SDS011;46518;48.842;8.926;2022-08-19T04:07:08;39.58;;;30.50;;
1400;SDS011;46518;48.842;8.926;2022-08-19T04:09:37;31.88;;;26.25;;
1400;SDS011;46518;48.842;8.926;2022-08-19T04:12:05;35.88;;;27.35;;
1400;SDS011;46518;48.842;8.926;2022-08-19T04:14:35;35.65;;;29.27;;
1400;SDS011;46518;48.842;8.926;2022-08-19T04:17:03;35.20;;;28.08;;
1400;SDS011;46518;48.842;8.926;2022-08-19T04:19:34;37.15;;;32.17;;
1400;SDS011;46518;48.842;8.926;2022-08-19T04:22:03;42.90;;;32.50;;
1400;SDS011;46518;48.842;8.926;2022-08-19T04:24:32;32.70;;;28.63;;
1400;SDS011;46518;48.842;8.926;2022-08-19T04:27:01;33.75;;;28.80;;
1400;SDS011;46518;48.842;8.926;2022-08-19T04:29:30;34.95;;;29.80;;
1400;SDS011;46518;48.842;8.926;2022-08-19T04:31:58;34.47;;;27.75;;
1400;SDS011;46518;48.842;8.926;2022-08-19T04:34:37;35.30;;;30.45;;
1400;SDS011;46518;48.842;8.926;2022-08-19T04:37:26;40.28;;;31.73;;
1400;SDS011;46518;48.842;8.926;2022-08-19T04:40:02;35.83;;;31.23;;
1400;SDS011;46518;48.842;8.926;2022-08-19T04:42:49;43.55;;;33.15;;
1400;SDS011;46518;48.842;8.926;2022-08-19T04:45:18;38.70;;;32.72;;
1400;SDS011;46518;48.842;8.926;2022-08-19T04:47:49;40.38;;;32.70;;
1400;SDS011;46518;48.842;8.926;2022-08-19T04:50:43;39.60;;;32.97;;
1400;SDS011;46518;48.842;8.926;2022-08-19T04:53:12;41.88;;;33.35;;
1400;SDS011;46518;48.842;8.926;2022-08-19T04:55:40;39.05;;;33.15;;
1400;SDS011;46518;48.842;8.926;2022-08-19T04:58:09;37.05;;;30.55;;
1400;SDS011;46518;48.842;8.926;2022-08-19T05:00:37;39.88;;;32.00;;
1400;SDS011;46518;48.842;8.926;2022-08-19T05:03:06;39.60;;;32.65;;
1400;SDS011;46518;48.842;8.926;2022-08-19T05:05:37;38.08;;;32.13;;
1400;SDS011;46518;48.842;8.926;2022-08-19T05:08:12;36.60;;;31.13;;
1400;SDS011;46518;48.842;8.926;2022-08-19T05:10:57;40.15;;;30.58;;
1400;SDS011;46518;48.842;8.926;2022-08-19T05:13:25;42.22;;;33.70;;
1400;SDS011;46518;48.842;8.926;2022-08-19T05:15:54;38.72;;;32.78;;
1400;SDS011;46518;48.842;8.926;2022-08-19T05:18:25;42.22;;;32.25;;
1400;SDS011;46518;48.842;8.926;2022-08-19T05:21:12;39.88;;;32.55;;
1400;SDS011;46518;48.842;8.926;2022-08-19T05:24:01;36.22;;;28.35;;
1400;SDS011;46518;48.842;8.926;2022-08-19T05:26:29;42.95;;;34.80;;
1400;SDS011;46518;48.842;8.926;2022-08-19T05:28:58;34.05;;;29.67;;
1400;SDS011;46518;48.842;8.926;2022-08-19T05:31:26;35.33;;;31.17;;
1400;SDS011;46518;48.842;8.926;2022-08-19T05:33:54;38.58;;;32.53;;
1400;SDS011;46518;48.842;8.926;2022-08-19T05:36:22;38.78;;;32.78;;
1400;SDS011;46518;48.842;8.926;2022-08-19T05:38:50;41.88;;;29.67;;
1400;SDS011;46518;48.842;8.926;2022-08-19T05:41:21;38.50;;;30.30;;
1400;SDS011;46518;48.842;8.926;2022-08-19T05:43:57;39.70;;;32.78;;
1400;SDS011;46518;48.842;8.926;2022-08-19T05:46:25;41.15;;;32.95;;
1400;SDS011;46518;48.842;8.926;2022-08-19T05:48:53;36.20;;;30.10;;
1400;SDS011;46518;48.842;8.926;2022-08-19T05:51:23;42.08;;;32.17;;
1400;SDS011;46518;48.842;8.926;2022-08-19T05:53:55;40.92;;;33.72;;
1400;SDS011;46518;48.842;8.926;2022-08-19T05:56:25;40.17;;;33.17;;
1400;SDS011;46518;48.842;8.926;2022-08-19T05:58:54;38.33;;;31.10;;
1400;SDS011;46518;48.842;8.926;2022-08-19T06:01:24;38.20;;;33.00;;
1400;SDS011;46518;48.842;8.926;2022-08-19T06:03:53;42.38;;;32.40;;
1400;SDS011;46518;48.842;8.926;2022-08-19T06:06:21;40.83;;;33.22;;
1400;SDS011;46518;48.842;8.926;2022-08-19T06:08:50;37.15;;;31.20;;
1400;SDS011;46518;48.842;8.926;2022-08-19T06:11:20;41.80;;;33.55;;
1400;SDS011;46518;48.842;8.926;2022-08-19T06:13:52;39.40;;;29.67;;
1400;SDS011;46518;48.842;8.926;2022-08-19T06:16:25;41.42;;;32.30;;
1400;SDS011;46518;48.842;8.926;2022-08-19T06:18:55;35.50;;;29.63;;
1400;SDS011;46518;48.842;8.926;2022-08-19T06:21:26;39.22;;;30.70;;
1400;SDS011;46518;48.842;8.926;2022-08-19T06:23:55;40.03;;;32.83;;
1400;SDS011;46518;48.842;8.926;2022-08-19T06:26:25;36.28;;;29.40;;
1400;SDS011;46518;48.842;8.926;2022-08-19T06:28:55;35.45;;;30.55;;
1400;SDS011;46518;48.842;8.926;2022-08-19T06:31:25;38.83;;;29.85;;
1400;SDS011;46518;48.842;8.926;2022-08-19T06:33:55;40.15;;;29.77;;
1400;SDS011;46518;48.842;8.926;2022-08-19T06:36:24;34.58;;;27.60;;
1400;SDS011;46518;48.842;8.926;2022-08-19T06:38:58;36.35;;;28.95;;
1400;SDS011;46518;48.842;8.926;2022-08-19T06:41:27;34.90;;;29.63;;
1400;SDS011;46518;48.842;8.926;2022-08-19T06:43:57;34.78;;;27.70;;
1400;SDS011;46518;48.842;8.926;2022-08-19T06:46:26;35.75;;;29.10;;
1400;SDS011;46518;48.842;8.926;2022-08-19T06:48:59;33.88;;;28.77;;
1400;SDS011;46518;48.842;8.926;2022-08-19T06:51:28;32.20;;;26.70;;
1400;SDS011;46518;48.842;8.926;2022-08-19T06:53:58;33.15;;;27.02;;
1400;SDS011;46518;48.842;8.926;2022-08-19T06:56:27;29.55;;;25.95;;
1400;SDS011;46518;48.842;8.926;2022-08-19T06:59:02;34.33;;;27.90;;
1400;SDS011;46518;48.842;8.926;2022-08-19T07:01:33;31.30;;;27.98;;
1400;SDS011;46518;48.842;8.926;2022-08-19T07:04:04;34.55;;;29.25;;
1400;SDS011;46518;48.842;8.926;2022-08-19T07:06:37;31.65;;;27.63;;
1400;SDS011;46518;48.842;8.926;2022-08-19T07:09:11;34.63;;;30.48;;
1400;SDS011;46518;48.842;8.926;2022-08-19T07:11:44;30.60;;;25.80;;
1400;SDS011;46518;48.842;8.926;2022-08-19T07:14:16;42.13;;;30.30;;
1400;SDS011;46518;48.842;8.926;2022-08-19T07:16:47;28.55;;;24.27;;
1400;SDS011;46518;48.842;8.926;2022-08-19T07:19:18;33.00;;;26.83;;
1400;SDS011;46518;48.842;8.926;2022-08-19T07:21:48;31.65;;;26.80;;
1400;SDS011;46518;48.842;8.926;2022-08-19T07:24:20;31.92;;;25.85;;
1400;SDS011;46518;48.842;8.926;2022-08-19T07:26:51;42.28;;;28.55;;
1400;SDS011;46518;48.842;8.926;2022-08-19T07:29:22;34.05;;;27.65;;
1400;SDS011;46518;48.842;8.926;2022-08-19T07:31:54;34.40;;;26.38;;
1400;SDS011;46518;48.842;8.926;2022-08-19T07:34:26;30.65;;;26.42;;
1400;SDS011;46518;48.842;8.926;2022-08-19T07:36:56;31.63;;;26.75;;
1400;SDS011;46518;48.842;8.926;2022-08-19T07:39:26;28.38;;;24.70;;
1400;SDS011;46518;48.842;8.926;2022-08-19T07:41:57;32.15;;;26.63;;
1400;SDS011;46518;48.842;8.926;2022-08-19T07:44:29;31.75;;;27.23;;
1400;SDS011;46518;48.842;8.926;2022-08-19T07:46:58;27.67;;;24.45;;
1400;SDS011;46518;48.842;8.926;2022-08-19T07:49:27;28.15;;;25.10;;
1400;SDS011;46518;48.842;8.926;2022-08-19T07:51:56;29.92;;;25.35;;
1400;SDS011;46518;48.842;8.926;2022-08-19T07:54:29;31.73;;;26.73;;
1400;SDS011;46518;48.842;8.926;2022-08-19T07:57:00;28.95;;;24.55;;
1400;SDS011;46518;48.842;8.926;2022-08-19T07:59:30;28.05;;;25.20;;
1400;SDS011;46518;48.842;8.926;2022-08-19T08:01:59;29.42;;;24.77;;
1400;SDS011;46518;48.842;8.926;2022-08-19T08:04:29;27.83;;;24.42;;
1400;SDS011;46518;48.842;8.926;2022-08-19T08:07:16;27.80;;;24.60;;
1400;SDS011;46518;48.842;8.926;2022-08-19T08:10:03;28.65;;;24.00;;
1400;SDS011;46518;48.842;8.926;2022-08-19T08:12:39;26.63;;;23.90;;
1400;SDS011;46518;48.842;8.926;2022-08-19T08:15:10;33.27;;;27.87;;
1400;SDS011;46518;48.842;8.926;2022-08-19T08:17:43;27.38;;;23.13;;
1400;SDS011;46518;48.842;8.926;2022-08-19T08:20:17;29.63;;;23.65;;
1400;SDS011;46518;48.842;8.926;2022-08-19T08:22:46;25.13;;;22.40;;
1400;SDS011;46518;48.842;8.926;2022-08-19T08:25:33;28.58;;;22.88;;
1400;SDS011;46518;48.842;8.926;2022-08-19T08:28:03;27.55;;;24.48;;
1400;SDS011;46518;48.842;8.926;2022-08-19T08:30:33;26.70;;;22.10;;
1400;SDS011;46518;48.842;8.926;2022-08-19T08:33:02;26.07;;;22.20;;
1400;SDS011;46518;48.842;8.926;2022-08-19T08:35:32;25.33;;;22.05;;
1400;SDS011;46518;48.842;8.926;2022-08-19T08:38:01;28.73;;;23.73;;
1400;SDS011;46518;48.842;8.926;2022-08-19T08:40:33;23.63;;;21.07;;
1400;SDS011;46518;48.842;8.926;2022-08-19T08:43:23;23.73;;;21.00;;
1400;SDS011;46518;48.842;8.926;2022-08-19T08:46:01;25.33;;;22.40;;
1400;SDS011;46518;48.842;8.926;2022-08-19T08:48:37;23.80;;;20.70;;
1400;SDS011;46518;48.842;8.926;2022-08-19T08:51:19;23.85;;;21.35;;
1400;SDS011;46518;48.842;8.926;2022-08-19T08:54:00;23.20;;;20.80;;
1400;SDS011;46518;48.842;8.926;2022-08-19T08:56:37;24.63;;;21.40;;
1400;SDS011;46518;48.842;8.926;2022-08-19T08:59:07;22.37;;;20.17;;
1400;SDS011;46518;48.842;8.926;2022-08-19T09:01:45;26.73;;;19.93;;
1400;SDS011;46518;48.842;8.926;2022-08-19T09:04:13;26.00;;;23.30;;
1400;SDS011;46518;48.842;8.926;2022-08-19T09:06:49;28.20;;;23.15;;
1400;SDS011;46518;48.842;8.926;2022-08-19T09:09:24;23.73;;;20.60;;
1400;SDS011;46518;48.842;8.926;2022-08-19T09:12:01;25.07;;;22.57;;
1400;SDS011;46518;48.842;8.926;2022-08-19T09:14:39;23.43;;;20.57;;
1400;SDS011;46518;48.842;8.926;2022-08-19T09:17:20;25.60;;;22.90;;
1400;SDS011;46518;48.842;8.926;2022-08-19T09:19:57;23.20;;;20.80;;
1400;SDS011;46518;48.842;8.926;2022-08-19T09:22:35;23.93;;;21.43;;
1400;SDS011;46518;48.842;8.926;2022-08-19T09:25:04;26.53;;;22.97;;
1400;SDS011;46518;48.842;8.926;2022-08-19T09:27:35;25.17;;;22.60;;
1400;SDS011;46518;48.842;8.926;2022-08-19T09:30:10;24.60;;;22.00;;
1400;SDS011;46518;48.842;8.926;2022-08-19T09:32:43;23.40;;;20.90;;
1400;SDS011;46518;48.842;8.926;2022-08-19T09:35:12;24.23;;;21.73;;
1400;SDS011;46518;48.842;8.926;2022-08-19T09:37:42;23.50;;;19.77;;
1400;SDS011;46518;48.842;8.926;2022-08-19T09:40:11;24.07;;;21.57;;
1400;SDS011;46518;48.842;8.926;2022-08-19T09:42:41;21.67;;;19.10;;
1400;SDS011;46518;48.842;8.926;2022-08-19T09:45:19;21.03;;;18.27;;
1400;SDS011;46518;48.842;8.926;2022-08-19T09:47:51;21.60;;;17.80;;
1400;SDS011;46518;48.842;8.926;2022-08-19T09:50:21;20.87;;;16.87;;
1400;SDS011;46518;48.842;8.926;2022-08-19T09:52:50;21.23;;;19.03;;
1400;SDS011;46518;48.842;8.926;2022-08-19T09:55:23;19.53;;;16.63;;
1400;SDS011;46518;48.842;8.926;2022-08-19T09:57:59;19.13;;;16.90;;
1400;SDS011;46518;48.842;8.926;2022-08-19T10:00:28;18.73;;;16.83;;
1400;SDS011;46518;48.842;8.926;2022-08-19T10:02:59;17.27;;;15.57;;
1400;SDS011;46518;48.842;8.926;2022-08-19T10:05:29;19.20;;;17.40;;
1400;SDS011;46518;48.842;8.926;2022-08-19T10:08:15;19.80;;;17.83;;
1400;SDS011;46518;48.842;8.926;2022-08-19T10:10:46;16.23;;;14.40;;
1400;SDS011;46518;48.842;8.926;2022-08-19T10:13:16;16.13;;;14.43;;
1400;SDS011;46518;48.842;8.926;2022-08-19T10:15:51;15.80;;;14.20;;
1400;SDS011;46518;48.842;8.926;2022-08-19T10:18:24;16.87;;;13.70;;
1400;SDS011;46518;48.842;8.926;2022-08-19T10:21:01;15.57;;;13.97;;
1400;SDS011;46518;48.842;8.926;2022-08-19T10:23:37;13.23;;;12.00;;
1400;SDS011;46518;48.842;8.926;2022-08-19T10:26:07;13.20;;;11.30;;
1400;SDS011;46518;48.842;8.926;2022-08-19T10:28:35;15.10;;;12.60;;
1400;SDS011;46518;48.842;8.926;2022-08-19T10:31:05;15.80;;;14.30;;
1400;SDS011;46518;48.842;8.926;2022-08-19T10:33:36;14.47;;;13.10;;
1400;SDS011;46518;48.842;8.926;2022-08-19T10:36:20;14.87;;;13.23;;
1400;SDS011;46518;48.842;8.926;2022-08-19T10:38:51;18.17;;;16.27;;
1400;SDS011;46518;48.842;8.926;2022-08-19T10:41:24;18.37;;;14.13;;
1400;SDS011;46518;48.842;8.926;2022-08-19T10:43:56;18.33;;;14.90;;
1400;SDS011;46518;48.842;8.926;2022-08-19T10:46:30;21.20;;;16.27;;
1400;SDS011;46518;48.842;8.926;2022-08-19T10:49:00;17.80;;;15.83;;
1400;SDS011;46518;48.842;8.926;2022-08-19T10:51:30;15.80;;;14.33;;
1400;SDS011;46518;48.842;8.926;2022-08-19T10:54:17;15.30;;;13.80;;
1400;SDS011;46518;48.842;8.926;2022-08-19T10:56:59;15.93;;;14.03;;
1400;SDS011;46518;48.842;8.926;2022-08-19T10:59:27;14.87;;;13.37;;
1400;SDS011;46518;48.842;8.926;2022-08-19T11:02:02;13.17;;;11.97;;
1400;SDS011;46518;48.842;8.926;2022-08-19T11:04:34;13.60;;;12.30;;
1400;SDS011;46518;48.842;8.926;2022-08-19T11:07:03;13.73;;;12.27;;
1400;SDS011;46518;48.842;8.926;2022-08-19T11:09:35;12.53;;;11.33;;
1400;SDS011;46518;48.842;8.926;2022-08-19T11:12:06;12.77;;;11.40;;
1400;SDS011;46518;48.842;8.926;2022-08-19T11:14:37;11.17;;;10.07;;
1400;SDS011;46518;48.842;8.926;2022-08-19T11:17:05;11.83;;;10.73;;
1400;SDS011;46518;48.842;8.926;2022-08-19T11:19:35;11.73;;;10.83;;
1400;SDS011;46518;48.842;8.926;2022-08-19T11:22:03;11.90;;;10.47;;
1400;SDS011;46518;48.842;8.926;2022-08-19T11:24:36;12.20;;;10.90;;
1400;SDS011;46518;48.842;8.926;2022-08-19T11:27:05;12.27;;;11.00;;
1400;SDS011;46518;48.842;8.926;2022-08-19T11:29:37;11.53;;;10.33;;
1400;SDS011;46518;48.842;8.926;2022-08-19T11:32:07;10.77;;;9.77;;
1400;SDS011;46518;48.842;8.926;2022-08-19T11:34:39;11.73;;;10.63;;
1400;SDS011;46518;48.842;8.926;2022-08-19T11:37:07;10.93;;;9.60;;
1400;SDS011;46518;48.842;8.926;2022-08-19T11:39:36;10.57;;;9.47;;
1400;SDS011;46518;48.842;8.926;2022-08-19T11:42:06;10.30;;;9.27;;
1400;SDS011;46518;48.842;8.926;2022-08-19T11:44:48;11.03;;;10.00;;
1400;SDS011;46518;48.842;8.926;2022-08-19T11:47:17;10.13;;;9.13;;
1400;SDS011;46518;48.842;8.926;2022-08-19T11:49:47;10.33;;;9.43;;
1400;SDS011;46518;48.842;8.926;2022-08-19T11:52:15;12.40;;;11.20;;
1400;SDS011;46518;48.842;8.926;2022-08-19T11:54:44;9.63;;;8.73;;
1400;SDS011;46518;48.842;8.926;2022-08-19T11:57:12;9.40;;;8.47;;
1400;SDS011;46518;48.842;8.926;2022-08-19T11:59:47;11.03;;;10.03;;
1400;SDS011;46518;48.842;8.926;2022-08-19T12:02:16;10.87;;;9.90;;
1400;SDS011;46518;48.842;8.926;2022-08-19T12:04:47;10.33;;;9.43;;
1400;SDS011;46518;48.842;8.926;2022-08-19T12:07:15;9.90;;;9.07;;
1400;SDS011;46518;48.842;8.926;2022-08-19T12:09:43;9.90;;;8.87;;
1400;SDS011;46518;48.842;8.926;2022-08-19T12:12:14;8.90;;;8.20;;
1400;SDS011;46518;48.842;8.926;2022-08-19T12:14:44;10.80;;;9.73;;
1400;SDS011;46518;48.842;8.926;2022-08-19T12:17:31;10.33;;;9.43;;
1400;SDS011;46518;48.842;8.926;2022-08-19T12:20:01;8.77;;;8.07;;
1400;SDS011;46518;48.842;8.926;2022-08-19T12:22:30;10.43;;;9.57;;
1400;SDS011;46518;48.842;8.926;2022-08-19T12:24:59;10.87;;;9.73;;
1400;SDS011;46518;48.842;8.926;2022-08-19T12:27:27;11.70;;;10.60;;
1400;SDS011;46518;48.842;8.926;2022-08-19T12:30:06;12.10;;;11.00;;
1400;SDS011;46518;48.842;8.926;2022-08-19T12:32:38;10.20;;;9.40;;
1400;SDS011;46518;48.842;8.926;2022-08-19T12:35:19;11.10;;;10.20;;
1400;SDS011;46518;48.842;8.926;2022-08-19T12:37:48;11.30;;;10.40;;
1400;SDS011;46518;48.842;8.926;2022-08-19T12:40:23;11.37;;;10.30;;
1400;SDS011;46518;48.842;8.926;2022-08-19T12:42:52;11.73;;;10.73;;
1400;SDS011;46518;48.842;8.926;2022-08-19T12:45:21;11.80;;;10.73;;
1400;SDS011;46518;48.842;8.926;2022-08-19T12:47:49;12.90;;;11.80;;
1400;SDS011;46518;48.842;8.926;2022-08-19T12:50:22;10.90;;;10.00;;
1400;SDS011;46518;48.842;8.926;2022-08-19T12:52:50;11.97;;;10.93;;
1400;SDS011;46518;48.842;8.926;2022-08-19T12:55:18;10.40;;;9.63;;
1400;SDS011;46518;48.842;8.926;2022-08-19T12:57:47;11.80;;;10.80;;
1400;SDS011;46518;48.842;8.926;2022-08-19T13:00:16;11.23;;;10.30;;
1400;SDS011;46518;48.842;8.926;2022-08-19T13:02:47;10.40;;;9.60;;
1400;SDS011;46518;48.842;8.926;2022-08-19T13:05:18;12.10;;;11.20;;
1400;SDS011;46518;48.842;8.926;2022-08-19T13:07:51;11.27;;;10.27;;
1400;SDS011;46518;48.842;8.926;2022-08-19T13:10:22;12.13;;;11.13;;
1400;SDS011;46518;48.842;8.926;2022-08-19T13:12:54;11.77;;;10.87;;
1400;SDS011;46518;48.842;8.926;2022-08-19T13:15:23;11.07;;;10.17;;
1400;SDS011;46518;48.842;8.926;2022-08-19T13:17:52;10.67;;;9.77;;
1400;SDS011;46518;48.842;8.926;2022-08-19T13:20:22;11.07;;;10.17;;
1400;SDS011;46518;48.842;8.926;2022-08-19T13:22:53;10.37;;;9.60;;
1400;SDS011;46518;48.842;8.926;2022-08-19T13:25:21;10.73;;;9.77;;
1400;SDS011;46518;48.842;8.926;2022-08-19T13:27:50;11.60;;;10.70;;
1400;SDS011;46518;48.842;8.926;2022-08-19T13:30:34;11.47;;;10.30;;
1400;SDS011;46518;48.842;8.926;2022-08-19T13:33:20;11.57;;;10.57;;
1400;SDS011;46518;48.842;8.926;2022-08-19T13:35:49;11.93;;;10.80;;
1400;SDS011;46518;48.842;8.926;2022-08-19T13:38:24;11.30;;;10.40;;
1400;SDS011;46518;48.842;8.926;2022-08-19T13:40:54;12.53;;;11.53;;
1400;SDS011;46518;48.842;8.926;2022-08-19T13:43:25;11.70;;;10.80;;
1400;SDS011;46518;48.842;8.926;2022-08-19T13:45:54;11.37;;;10.43;;
1400;SDS011;46518;48.842;8.926;2022-08-19T13:48:24;11.57;;;10.63;;
1400;SDS011;46518;48.842;8.926;2022-08-19T13:50:54;14.03;;;12.73;;
1400;SDS011;46518;48.842;8.926;2022-08-19T13:53:22;13.93;;;12.77;;
1400;SDS011;46518;48.842;8.926;2022-08-19T13:55:52;15.30;;;13.87;;
1400;SDS011;46518;48.842;8.926;2022-08-19T13:58:21;14.20;;;13.10;;
1400;SDS011;46518;48.842;8.926;2022-08-19T14:00:50;14.40;;;13.30;;
1400;SDS011;46518;48.842;8.926;2022-08-19T14:03:18;15.90;;;14.60;;
1400;SDS011;46518;48.842;8.926;2022-08-19T14:05:46;14.57;;;13.23;;
1400;SDS011;46518;48.842;8.926;2022-08-19T14:08:15;14.07;;;12.80;;
1400;SDS011;46518;48.842;8.926;2022-08-19T14:10:45;15.03;;;13.93;;
1400;SDS011;46518;48.842;8.926;2022-08-19T14:13:15;12.40;;;11.40;;
1400;SDS011;46518;48.842;8.926;2022-08-19T14:15:46;12.13;;;11.13;;
1400;SDS011;46518;48.842;8.926;2022-08-19T14:18:15;12.80;;;11.70;;
1400;SDS011;46518;48.842;8.926;2022-08-19T14:20:44;13.07;;;12.07;;
1400;SDS011;46518;48.842;8.926;2022-08-19T14:23:12;11.00;;;10.13;;
1400;SDS011;46518;48.842;8.926;2022-08-19T14:25:41;13.20;;;12.10;;
1400;SDS011;46518;48.842;8.926;2022-08-19T14:28:11;12.77;;;11.77;;
1400;SDS011;46518;48.842;8.926;2022-08-19T14:30:39;12.80;;;11.80;;
1400;SDS011;46518;48.842;8.926;2022-08-19T14:33:08;14.10;;;13.00;;
1400;SDS011;46518;48.842;8.926;2022-08-19T14:35:36;11.90;;;10.90;;
1400;SDS011;46518;48.842;8.926;2022-08-19T14:38:06;12.40;;;11.30;;
1400;SDS011;46518;48.842;8.926;2022-08-19T14:40:42;13.90;;;12.70;;
1400;SDS011;46518;48.842;8.926;2022-08-19T14:43:12;14.07;;;12.87;;
1400;SDS011;46518;48.842;8.926;2022-08-19T14:45:43;14.50;;;13.30;;
1400;SDS011;46518;48.842;8.926;2022-08-19T14:48:12;14.10;;;12.90;;
1400;SDS011;46518;48.842;8.926;2022-08-19T14:50:45;13.20;;;12.00;;
1400;SDS011;46518;48.842;8.926;2022-08-19T14:53:13;13.30;;;12.30;;
1400;SDS011;46518;48.842;8.926;2022-08-19T14:55:45;13.43;;;12.30;;
1400;SDS011;46518;48.842;8.926;2022-08-19T14:58:18;15.40;;;14.10;;
1400;SDS011;46518;48.842;8.926;2022-08-19T15:00:55;13.10;;;12.10;;
1400;SDS011;46518;48.842;8.926;2022-08-19T15:03:25;13.23;;;11.93;;